Tasman Crusader — A8NQ7 — position and weather

sailwx.info

Track history (hours):
 
Tides and Currents Weather Stations Pressure Air Temp Water Temp Dewpoint Dewpoint Depression Visibility Wind Speed Wind Dir Waves Ship Positions

Tasman Crusader

Last reported at 2017-Oct-19 14:00 UTC. Time now 2017-Oct-19 14:14 UTC.
Position N 34°35' W 120°58'.

Length 186 m; draft 8.8 m.

Type: Ship (hazmat cat A). MMSI: 636091434.

Date/timePositionNaut miles runAvg speedWind from/ knotsBaromVisibWave heightAir tempDewpointWater temp
2017-Oct-19 14:00N 34°35' W 120°58'610.8
2017-Oct-19 13:29N 34°30' W 120°54'510.4
2017-Oct-19 13:00N 34°26' W 120°50'612.0
2017-Oct-19 12:31N 34°24' W 120°44'612.0
2017-Oct-19 12:00N 34°23' W 120°36'612.0
2017-Oct-19 11:29N 34°21' W 120°29'612.0
2017-Oct-19 11:00N 34°20' W 120°23'612.9
2017-Oct-19 10:30N 34°18' W 120°15'612.4
2017-Oct-19 10:00N 34°16' W 120°08'612.5
2017-Oct-19 09:30N 34°15' W 120°01'712.7
2017-Oct-19 08:58N 34°13' W 119°53'612.2
2017-Oct-19 08:30N 34°11' W 119°46'612.3
2017-Oct-19 08:00N 34°10' W 119°39'611.9
2017-Oct-19 07:30N 34°08' W 119°32'612.5
2017-Oct-19 07:00N 34°06' W 119°24'612.6
2017-Oct-19 06:30N 34°05' W 119°17'612.6
2017-Oct-19 06:00N 34°02' W 119°10'612.7
2017-Oct-19 05:30N 33°59' W 119°04'611.7
2017-Oct-19 05:00N 33°56' W 118°58'611.7
2017-Oct-19 04:30N 33°53' W 118°52'611.5
2017-Oct-19 04:00N 33°50' W 118°46'611.6
2017-Oct-19 03:30N 33°47' W 118°39'611.9
2017-Oct-19 03:00N 33°44' W 118°33'611.7
2017-Oct-19 02:30N 33°41' W 118°27'611.6
2017-Oct-19 02:00N 33°39' W 118°21'611.4
2017-Oct-19 01:30N 33°39' W 118°14'510.3
2017-Oct-19 01:01N 33°43' W 118°11'3 6.5
2017-Oct-19 00:30N 33°46' W 118°13'1 1.4
2017-Oct-18 23:58N 33°46' W 118°14'0 0.0
2017-Oct-18 23:28N 33°46' W 118°14'0 0.0
2017-Oct-18 22:55N 33°46' W 118°14'0 0.0
2017-Oct-18 22:28N 33°46' W 118°14'0 0.0
2017-Oct-18 21:59N 33°46' W 118°14'0 0.0
2017-Oct-18 21:28N 33°46' W 118°14'0 0.0
2017-Oct-18 20:59N 33°46' W 118°14'0 0.0
2017-Oct-18 20:25N 33°46' W 118°14'0 0.0
2017-Oct-18 19:55N 33°46' W 118°14'0 0.0
2017-Oct-18 19:25N 33°46' W 118°14'0 0.0
2017-Oct-18 18:56N 33°46' W 118°14'0 0.0
2017-Oct-18 18:25N 33°46' W 118°14'0 0.0
2017-Oct-18 17:55N 33°46' W 118°14'0 0.0
2017-Oct-18 16:37N 33°46' W 118°14'0 0.0
2017-Oct-18 16:25N 33°46' W 118°14'0 0.0
2017-Oct-18 15:49N 33°46' W 118°14'0 0.0
2017-Oct-18 15:25N 33°46' W 118°14'0 0.0
2017-Oct-18 14:43N 33°46' W 118°14'0 0.0
2017-Oct-18 13:51N 33°46' W 118°14'1 1.8
2017-Oct-18 13:30N 33°46' W 118°13'1 2.8
2017-Oct-18 13:00N 33°45' W 118°13'4 9.1
2017-Oct-18 12:30N 33°41' W 118°11'4 7.0
2017-Oct-18 12:00N 33°37' W 118°10'4 7.2
2017-Oct-18 11:30N 33°34' W 118°09'4 9.0
2017-Oct-18 11:00N 33°30' W 118°07'4 7.3
2017-Oct-18 10:30N 33°26' W 118°05'510.1
2017-Oct-18 10:00N 33°22' W 118°03'510.9
2017-Oct-18 09:30N 33°17' W 118°01'510.9
2017-Oct-18 09:00N 33°12' W 117°58'511.0
2017-Oct-18 08:30N 33°06' W 117°57'611.0
2017-Oct-18 08:00N 33°01' W 117°54'510.8
2017-Oct-18 07:31N 32°56' W 117°51'511.0
2017-Oct-18 07:01N 32°51' W 117°49'510.9
2017-Oct-18 06:30N 32°46' W 117°46'611.2
2017-Oct-18 06:01N 32°41' W 117°43'611.2
2017-Oct-18 05:31N 32°36' W 117°41'611.4
2017-Oct-18 05:00N 32°31' W 117°38'713.8
2017-Oct-18 04:30N 32°24' W 117°36'815.1
2017-Oct-18 04:00N 32°17' W 117°32'714.9
2017-Oct-18 03:30N 32°10' W 117°29'714.7
2017-Oct-18 03:00N 32°03' W 117°27'714.4
2017-Oct-18 02:30N 31°56' W 117°24'714.2
2017-Oct-18 02:00N 31°50' W 117°21'816.7
2017-Oct-18 01:30N 31°42' W 117°18'1416.6
2017-Oct-18 00:40N 31°29' W 117°13'317.0
2017-Oct-18 00:29N 31°26' W 117°11'1518.8
2017-Oct-17 23:43N 31°12' W 117°06'418.8
2017-Oct-17 23:30N 31°08' W 117°04'917.9
2017-Oct-17 23:00N 30°60' W 117°01'815.9
2017-Oct-17 22:30N 30°52' W 116°58'816.0
2017-Oct-17 22:00N 30°44' W 116°55'  
2017-Oct-13 21:00N 16°12' W 099°12'   290 / 141009.010.8 29.026.330.0
Track history (hours):
 
Tides and Currents Weather Stations Pressure Air Temp Water Temp Dewpoint Dewpoint Depression Visibility Wind Speed Wind Dir Waves Ship Positions

Tasman Crusader

Last reported at 2017-Oct-19 14:00 UTC. Time now 2017-Oct-19 14:14 UTC.
Position N 34°35' W 120°58'.

Length 186 m; draft 8.8 m.

Type: Ship (hazmat cat A). MMSI: 636091434.

Date/timePositionNaut miles runAvg speedWind from/ knotsBaromVisibWave heightAir tempDewpointWater temp
2017-Oct-19 14:00N 34°35' W 120°58'610.8
2017-Oct-19 13:29N 34°30' W 120°54'510.4
2017-Oct-19 13:00N 34°26' W 120°50'612.0
2017-Oct-19 12:31N 34°24' W 120°44'612.0
2017-Oct-19 12:00N 34°23' W 120°36'612.0
2017-Oct-19 11:29N 34°21' W 120°29'612.0
2017-Oct-19 11:00N 34°20' W 120°23'612.9
2017-Oct-19 10:30N 34°18' W 120°15'612.4
2017-Oct-19 10:00N 34°16' W 120°08'612.5
2017-Oct-19 09:30N 34°15' W 120°01'712.7
2017-Oct-19 08:58N 34°13' W 119°53'612.2
2017-Oct-19 08:30N 34°11' W 119°46'612.3
2017-Oct-19 08:00N 34°10' W 119°39'611.9
2017-Oct-19 07:30N 34°08' W 119°32'612.5
2017-Oct-19 07:00N 34°06' W 119°24'612.6
2017-Oct-19 06:30N 34°05' W 119°17'612.6
2017-Oct-19 06:00N 34°02' W 119°10'612.7
2017-Oct-19 05:30N 33°59' W 119°04'611.7
2017-Oct-19 05:00N 33°56' W 118°58'611.7
2017-Oct-19 04:30N 33°53' W 118°52'611.5
2017-Oct-19 04:00N 33°50' W 118°46'611.6
2017-Oct-19 03:30N 33°47' W 118°39'611.9
2017-Oct-19 03:00N 33°44' W 118°33'611.7
2017-Oct-19 02:30N 33°41' W 118°27'611.6
2017-Oct-19 02:00N 33°39' W 118°21'611.4
2017-Oct-19 01:30N 33°39' W 118°14'510.3
2017-Oct-19 01:01N 33°43' W 118°11'3 6.5
2017-Oct-19 00:30N 33°46' W 118°13'1 1.4
2017-Oct-18 23:58N 33°46' W 118°14'0 0.0
2017-Oct-18 23:28N 33°46' W 118°14'0 0.0
2017-Oct-18 22:55N 33°46' W 118°14'0 0.0
2017-Oct-18 22:28N 33°46' W 118°14'0 0.0
2017-Oct-18 21:59N 33°46' W 118°14'0 0.0
2017-Oct-18 21:28N 33°46' W 118°14'0 0.0
2017-Oct-18 20:59N 33°46' W 118°14'0 0.0
2017-Oct-18 20:25N 33°46' W 118°14'0 0.0
2017-Oct-18 19:55N 33°46' W 118°14'0 0.0
2017-Oct-18 19:25N 33°46' W 118°14'0 0.0
2017-Oct-18 18:56N 33°46' W 118°14'0 0.0
2017-Oct-18 18:25N 33°46' W 118°14'0 0.0
2017-Oct-18 17:55N 33°46' W 118°14'0 0.0
2017-Oct-18 16:37N 33°46' W 118°14'0 0.0
2017-Oct-18 16:25N 33°46' W 118°14'0 0.0
2017-Oct-18 15:49N 33°46' W 118°14'0 0.0
2017-Oct-18 15:25N 33°46' W 118°14'0 0.0
2017-Oct-18 14:43N 33°46' W 118°14'0 0.0
2017-Oct-18 13:51N 33°46' W 118°14'1 1.8
2017-Oct-18 13:30N 33°46' W 118°13'1 2.8
2017-Oct-18 13:00N 33°45' W 118°13'4 9.1
2017-Oct-18 12:30N 33°41' W 118°11'4 7.0
2017-Oct-18 12:00N 33°37' W 118°10'4 7.2
2017-Oct-18 11:30N 33°34' W 118°09'4 9.0
2017-Oct-18 11:00N 33°30' W 118°07'4 7.3
2017-Oct-18 10:30N 33°26' W 118°05'510.1
2017-Oct-18 10:00N 33°22' W 118°03'510.9
2017-Oct-18 09:30N 33°17' W 118°01'510.9
2017-Oct-18 09:00N 33°12' W 117°58'511.0
2017-Oct-18 08:30N 33°06' W 117°57'611.0
2017-Oct-18 08:00N 33°01' W 117°54'510.8
2017-Oct-18 07:31N 32°56' W 117°51'511.0
2017-Oct-18 07:01N 32°51' W 117°49'510.9
2017-Oct-18 06:30N 32°46' W 117°46'611.2
2017-Oct-18 06:01N 32°41' W 117°43'611.2
2017-Oct-18 05:31N 32°36' W 117°41'611.4
2017-Oct-18 05:00N 32°31' W 117°38'713.8
2017-Oct-18 04:30N 32°24' W 117°36'815.1
2017-Oct-18 04:00N 32°17' W 117°32'714.9
2017-Oct-18 03:30N 32°10' W 117°29'714.7
2017-Oct-18 03:00N 32°03' W 117°27'714.4
2017-Oct-18 02:30N 31°56' W 117°24'714.2
2017-Oct-18 02:00N 31°50' W 117°21'816.7
2017-Oct-18 01:30N 31°42' W 117°18'1416.6
2017-Oct-18 00:40N 31°29' W 117°13'317.0
2017-Oct-18 00:29N 31°26' W 117°11'1518.8
2017-Oct-17 23:43N 31°12' W 117°06'418.8
2017-Oct-17 23:30N 31°08' W 117°04'917.9
2017-Oct-17 23:00N 30°60' W 117°01'815.9
2017-Oct-17 22:30N 30°52' W 116°58'816.0
2017-Oct-17 22:00N 30°44' W 116°55'  
2017-Oct-13 21:00N 16°12' W 099°12'   290 / 141009.010.8 29.026.330.0

Dump ship's entire track history